LOWILCLK

Guest
Details From LOWI - Innsbruck Kranebitten
To LCLK - Larnaca
Flight Number -
Tags decoded
Created
Modified
Stats Distance 1,246 nm / 2,308 km
Max Altitude 0 ft / 0 m
Waypoints 2
Social Downloads 0
Likes 0
Share VATSIM

Download

Looking for another format? Having issues loading an existing format? Contact us
Advertisement - Login to hide

Notes

Requested: LOWI LCLK

Route

LOWI LCLK

ID Type Via Altitude (ft/m) Position (lat/lon) Dist (leg/tot) Name
O LOWI APT - 0 / 0 47.26023 / 11.34397 - / 0 nm Innsbruck Kranebitten
O LCLK APT - 0 / 0 34.87512 / 33.62483 1245 / 1245 nm Larnaca

Altitude Profile

Advertisement - Login to hide

Weather


0- 5 10 15 20 25 30 35+ Temperature / °C

Clouds and Precipitation
Forecast for 2019-03-25 00:00 UTC. Updated 3 hours ago

Ground ~20,000 ft ~40,000 ft Winds

LOWI

Details ICAO LOWI (INN)
Name Innsbruck
Region Austria
Timezone Europe/Vienna (UTC+1.0)
Stats Elevation 1,905 ft / 581 m (AMSL)
Location 47.260200° 11.344000°
Runways 1
Magnetic Variation 3.172° E

METAR

LOWI 250050Z VRB01KT 9999 FEW100 05/01 Q1019 NOSIG

Decode

TAF

TAF LOWI 242315Z 2500/2524 27006KT 9999 SCT040 BKN060 TX09/2512Z TN04/2524Z TEMPO 2504/2518 27015G25KT SHRA SCT010 BKN030 TEMPO 2518/2524 29015G25KT SHSNRA FEW007 BKN020

Decode

Departure Runways

ID Width Length Bearing (true/mag) Surface Threshold Overrun Markings Lighting
08 148 ft / 45 m 6,545 ft / 1,995 m 80.93° / 77.76° ASPHALT 338 ft / 103 m 0 ft / 0 m PREC-APP CENTERLINE EDGE THRESHOLD REIL-OMNI
26 148 ft / 45 m 6,545 ft / 1,995 m 260.95° / 257.78° ASPHALT 0 ft / 0 m 0 ft / 0 m PREC-APP CENTERLINE EDGE THRESHOLD MALS REIL-OMNI

LCLK

Details ICAO LCLK (LCA)
Name Larnaca Airport
Region Cyprus
Timezone Asia/Nicosia (UTC+2.0)
Stats Elevation 9 ft / 3 m (AMSL)
Location 34.873800° 33.623900°
Runways 1
Magnetic Variation 5.101° E

METAR

LCLK 250100Z 35010KT 9999 FEW025 11/03 Q1004 NOSIG

Decode

TAF

TAF LCLK 242330Z 2500/2524 33012KT 9999 FEW030 PROB30 2500/2508 03016KT BECMG 2512/2515 22013KT BECMG 2517/2520 32007KT

Decode

Destination Runways

ID Width Length Bearing (true/mag) Surface Threshold Overrun Markings Lighting
04 148 ft / 45 m 9,831 ft / 2,997 m 45.07° / 39.97° ASPHALT 0 ft / 0 m 194 ft / 59 m PREC-APP CENTERLINE EDGE THRESHOLD ALSF-II REIL-OMNI
22 148 ft / 45 m 9,831 ft / 2,997 m 225.08° / 219.98° ASPHALT 594 ft / 181 m 0 ft / 0 m PREC-APP CENTERLINE EDGE THRESHOLD ALSF-II REIL-OMNI

Approach Navaids

Runway Type Ident Frequency Range Bearing (true/mag) Slope Elevation
22 DME ILC 110.30 MHz 18 nm / 33 km - - 20 ft / 6 m (AMSL)
22 LOC-ILS ILC 110.30 MHz 18 nm / 33 km 225.17° / 220.07 ° - 8 ft / 2 m (AMSL)
22 GS ILC 110.30 MHz 10 nm / 19 km 225.32° / 220.22 ° 2.75° 24 ft / 7 m (AMSL)

Popular Alternatives